Open Full Screen Window  High Contrast Mode
January 18, 2018 9:40 PM CST
Weather Information
Wind Direction
  ---
Wind Speed
  00 kt (0 mph)
Wind Gust
  00 kt (0 mph)
Altimeter
29.77 in
Visibility
7 SM
Temperature
-03° C
27° F
Dewpoint
-04° C
25° F
Humidity
93%
1hr Rain Fall
00.00 in.
24hr Rain Fall
00.00 in.
Sky Condition
Clear
VFR

METAR KSGS 190340Z AUTO 00000KT 7SM CLR M03/M04 A2977 RMK AO2 T10341045

*Background is not an actual portrayal of the airport.